Latest Weather Observations for Devonport Airport

IDT60801

Issued at 2:32 pm EST Friday 28 July 2017 (issued every 30 minutes, with the page automatically refreshed every 10 minutes)

About weather observations | Map of weather stations | Latest weather observations for TAS | Other Formats
Station Details ID: 091126 Name: DEVONPORT AIRPORT Lat: -41.17 Lon: 146.43 Height: 8.0 m
Data from the previous 72 hours. | See also: Recent months at Devonport Airport
Date/Time
EST
Temp
°C
App
Temp
°C
Dew
Point
°C
Rel
Hum
%
Delta-T
°C
Wind Press
QNH
hPa
Press
MSL
hPa
Rain since
9am
mm
Dir  Spd
km/h
Gust
km/h
Spd
kts
Gust
kts
28/02:30pm 13.7 8.5 5.3 57 3.9 SW 22 30 12 16 1012.9 1013.0 0.0
28/02:00pm 14.4 8.3 6.7 60 3.7 W 28 33 15 18 1012.2 1012.3 0.0
28/01:30pm 14.2 7.3 6.6 60 3.7 W 32 39 17 21 1012.0 1012.1 0.0
28/01:00pm 14.9 8.2 7.5 61 3.7 W 32 41 17 22 1012.2 1012.3 0.0
28/12:30pm 13.1 6.8 7.5 69 2.7 WNW 30 37 16 20 1012.4 1012.5 0.0
28/12:00pm 13.1 9.1 8.2 72 2.4 NW 19 24 10 13 1012.6 1012.7 0.0
28/11:30am 12.3 7.4 8.4 77 1.9 WNW 24 32 13 17 1012.6 1012.7 0.0
28/11:00am 12.2 7.6 8.1 76 2.0 WNW 22 26 12 14 1012.8 1012.9 0.0
28/10:30am 11.4 5.9 7.5 77 1.9 WNW 26 32 14 17 1012.7 1012.8 0.0
28/10:00am 11.1 5.9 7.2 77 1.9 WNW 24 28 13 15 1012.2 1012.3 0.0
28/09:30am 10.5 5.2 6.8 78 1.7 WNW 24 28 13 15 1012.1 1012.2 0.0
28/09:00am 10.1 5.7 7.2 82 1.4 WNW 20 26 11 14 1011.6 1011.7 6.6
28/08:30am 8.0 5.4 6.3 89 0.8 WSW 9 11 5 6 1011.3 1011.4 6.6
28/08:00am 8.0 5.4 6.1 88 0.9 SW 9 13 5 7 1011.2 1011.3 6.6
28/07:30am 8.7 4.3 6.7 87 0.9 W 19 24 10 13 1010.8 1010.9 6.6
28/07:00am 9.4 4.1 6.8 84 1.2 WNW 24 30 13 16 1010.4 1010.5 6.6
28/06:30am 9.2 3.6 7.0 86 1.0 WNW 26 30 14 16 1009.7 1009.8 6.6
28/06:00am 9.1 4.3 7.4 89 0.8 WNW 22 28 12 15 1009.5 1009.6 6.6
28/05:30am 8.9 4.1 7.4 90 0.7 WNW 22 28 12 15 1009.4 1009.5 6.6
28/05:16am 8.7 4.5 7.6 93 0.5 WNW 19 26 10 14 1009.4 1009.5 6.6
28/05:00am 7.8 4.5 6.6 92 0.6 W 13 19 7 10 1009.3 1009.4 6.6
28/04:46am 8.3 4.7 6.9 91 0.6 W 15 19 8 10 1009.2 1009.3 6.6
28/04:30am 8.7 4.9 7.5 92 0.6 W 17 20 9 11 1009.1 1009.2 6.6
28/04:00am 9.0 4.8 7.6 91 0.7 W 19 26 10 14 1008.7 1008.8 6.6
28/03:30am 9.8 4.8 8.2 90 0.8 W 24 30 13 16 1008.3 1008.4 6.6
28/03:10am 10.1 5.2 8.5 90 0.8 WNW 24 28 13 15 1008.2 1008.3 6.6
28/03:00am 10.2 5.3 8.5 89 0.8 WNW 24 32 13 17 1008.2 1008.3 6.6
28/02:30am 10.3 4.7 8.9 91 0.7 NW 28 35 15 19 1008.3 1008.4 6.6
28/02:19am 10.2 5.8 9.1 93 0.5 WNW 22 32 12 17 1008.3 1008.4 6.6
28/02:06am 9.7 5.6 8.6 93 0.5 WNW 20 28 11 15 1008.2 1008.3 6.6
28/02:00am 9.6 5.7 8.5 93 0.5 W 19 24 10 13 1008.2 1008.3 6.6
28/01:40am 10.3 3.4 8.7 90 0.8 NW 35 48 19 26 1007.9 1008.0 6.6
28/01:38am 10.4 3.5 8.8 90 0.8 NW 35 46 19 25 1007.9 1008.0 6.6
28/01:30am 10.3 3.7 8.4 88 0.9 NW 33 44 18 24 1008.0 1008.1 6.4
28/01:21am 10.3 5.6 9.1 92 0.6 NW 24 33 13 18 1008.2 1008.3 6.4
28/01:00am 9.7 4.4 8.5 92 0.6 NW 26 33 14 18 1008.2 1008.3 6.2
28/12:30am 10.3 3.6 8.1 86 1.1 NW 33 43 18 23 1008.6 1008.7 5.6
28/12:00am 9.6 3.1 8.0 90 0.8 NW 32 43 17 23 1008.2 1008.3 5.6
 
Date/Time
EST
Temp
°C
App
Temp
°C
Dew
Point
°C
Rel
Hum
%
Delta-T
°C
Wind Press
QNH
hPa
Press
MSL
hPa
Rain since
9am
mm
Dir  Spd
km/h
Gust
km/h
Spd
kts
Gust
kts
27/11:54pm 9.5 2.0 8.1 91 0.7 NW 37 50 20 27 1008.3 1008.4 5.6
27/11:46pm 9.3 1.1 8.1 92 0.6 NW 41 56 22 30 1008.7 1008.8 5.2
27/11:44pm 9.1 0.4 7.9 92 0.6 NW 43 78 23 42 1008.8 1008.9 5.2
27/11:34pm 10.4 0.8 9.6 95 0.4 NNW 50 80 27 43 1008.3 1008.4 4.8
27/11:30pm 11.2 2.2 10.3 94 0.5 NNW 48 63 26 34 1008.0 1008.1 3.6
27/11:29pm 11.1 2.1 10.2 94 0.5 NNW 48 63 26 34 1008.1 1008.2 3.6
27/11:02pm 11.2 1.0 10.1 93 0.6 NNW 54 69 29 37 1008.8 1008.9 2.6
27/11:00pm 11.2 0.6 10.0 92 0.6 NNW 56 69 30 37 1008.6 1008.7 2.6
27/10:58pm 11.2 1.0 10.0 92 0.6 NNW 54 67 29 36 1008.7 1008.8 2.6
27/10:38pm 11.3 2.5 9.7 90 0.8 NNW 46 57 25 31 1008.9 1009.0 2.0
27/10:30pm 11.4 1.8 9.5 88 1.0 NNW 50 61 27 33 1009.2 1009.3 1.6
27/10:15pm 11.5 2.3 9.4 87 1.1 NNW 48 70 26 38 1009.0 1009.1 1.4
27/10:00pm 11.3 2.5 9.4 88 1.0 NNW 46 63 25 34 1009.1 1009.2 1.4
27/09:57pm 11.3 2.8 9.2 87 1.0 NNW 44 63 24 34 1009.0 1009.1 1.4
27/09:30pm 11.4 1.7 9.1 86 1.1 NNW 50 65 27 35 1009.6 1009.7 0.8
27/09:00pm 12.0 3.7 9.9 87 1.1 N 44 54 24 29 1010.2 1010.3 0.2
27/08:30pm 12.4 4.0 9.1 80 1.7 N 43 54 23 29 1010.5 1010.6 0.0
27/08:00pm 12.2 4.1 8.7 79 1.7 N 41 50 22 27 1011.1 1011.2 0.0
27/07:30pm 12.1 4.8 8.6 79 1.7 N 37 48 20 26 1011.6 1011.7 0.0
27/07:00pm 12.1 4.9 9.1 82 1.5 N 37 46 20 25 1011.9 1012.0 0.0
27/06:30pm 11.9 5.4 9.1 83 1.4 N 33 41 18 22 1012.5 1012.6 0.0
27/06:00pm 11.7 5.4 8.9 83 1.4 N 32 43 17 23 1012.9 1013.0 0.0
27/05:30pm 11.6 5.0 8.6 82 1.5 N 33 43 18 23 1013.2 1013.3 0.0
27/05:00pm 11.5 5.1 8.5 82 1.5 N 32 41 17 22 1013.6 1013.7 0.0
27/04:30pm 11.4 4.9 8.3 81 1.5 N 32 39 17 21 1014.0 1014.1 0.0
27/04:00pm 11.5 5.0 8.0 79 1.7 N 32 41 17 22 1014.3 1014.4 0.0
27/03:30pm 11.6 5.5 8.1 79 1.7 NNW 30 35 16 19 1014.5 1014.6 0.0
27/03:00pm 11.6 5.3 7.5 76 2.0 NNW 30 37 16 20 1014.8 1014.9 0.0
27/02:30pm 11.6 5.3 7.3 75 2.1 NNW 30 41 16 22 1014.9 1015.0 0.0
27/02:00pm 11.9 4.3 7.6 75 2.1 NNW 37 44 20 24 1015.4 1015.5 0.0
27/01:30pm 11.5 5.1 8.4 81 1.5 N 32 43 17 23 1016.1 1016.2 0.0
27/01:00pm 10.5 3.9 8.6 88 0.9 N 33 43 18 23 1017.2 1017.3 0.0
27/12:30pm 10.7 4.8 7.4 80 1.6 N 28 41 15 22 1017.8 1017.9 0.0
27/12:29pm 10.8 4.9 7.7 81 1.5 N 28 39 15 21 1018.0 1018.0 0.0
27/12:00pm 7.3 3.4 5.3 87 0.9 SSE 15 19 8 10 1018.7 1018.7 0.0
27/11:30am 6.9 3.2 4.4 84 1.1 SSE 13 15 7 8 1019.3 1019.3 0.0
27/11:00am 6.6 3.2 4.1 84 1.1 S 11 13 6 7 1019.8 1019.8 0.0
27/10:30am 5.8 1.5 3.1 83 1.1 SSE 15 19 8 10 1020.1 1020.1 0.0
27/10:00am 5.5 1.6 3.2 85 0.9 SSE 13 17 7 9 1020.6 1020.6 0.0
27/09:30am 5.1 0.8 3.1 87 0.8 S 15 17 8 9 1020.7 1020.7 0.0
27/09:00am 4.0 -0.4 2.5 90 0.6 S 15 19 8 10 1020.6 1020.6 0.0
27/08:30am 2.8 -1.4 1.8 93 0.4 SSE 13 15 7 8 1020.8 1020.8 0.0
27/08:00am 2.4 -1.5 1.4 93 0.4 SSE 11 15 6 8 1021.2 1021.2 0.0
27/07:30am 1.9 -2.0 0.9 93 0.4 S 11 13 6 7 1021.0 1021.0 0.0
27/07:00am 1.3 -2.7 0.4 94 0.3 S 11 13 6 7 1020.4 1020.4 0.0
27/06:30am 1.0 -3.0 0.3 95 0.3 S 11 11 6 6 1020.5 1020.5 0.0
27/06:00am -0.4 -3.9 -1.5 92 0.4 SSW 7 9 4 5 1020.9 1020.9 0.0
27/05:30am 0.3 -3.2 -1.0 91 0.5 SSW 7 9 4 5 1020.7 1020.7 0.0
27/05:00am 1.8 -2.2 0.5 91 0.5 SSE 11 13 6 7 1020.6 1020.6 0.0
27/04:30am 1.4 -2.6 0.2 92 0.4 S 11 15 6 8 1020.8 1020.8 0.0
27/04:00am 1.4 -2.3 0.1 91 0.5 S 9 13 5 7 1020.7 1020.7 0.0
27/03:30am 1.9 -0.1 0.1 88 0.7 CALM 0 0 0 0 1020.9 1020.9 0.0
27/03:00am 3.1 -1.2 1.2 87 0.7 S 13 15 7 8 1021.2 1021.2 0.0
27/02:30am 3.1 -1.2 1.0 86 0.8 S 13 15 7 8 1021.4 1021.4 0.0
27/02:00am 3.6 0.4 1.0 83 1.0 SSW 7 11 4 6 1021.7 1021.7 0.0
27/01:30am 4.2 0.4 1.9 85 0.9 SSW 11 15 6 8 1021.7 1021.7 0.0
27/01:00am 2.0 -0.3 0.2 88 0.7 SSW 2 6 1 3 1021.6 1021.6 0.0
27/12:30am 2.9 -0.6 1.3 89 0.6 SSW 9 11 5 6 1021.6 1021.6 0.0
27/12:00am 2.7 -0.8 1.1 89 0.6 S 9 13 5 7 1021.6 1021.6 0.0
 
Date/Time
EST
Temp
°C
App
Temp
°C
Dew
Point
°C
Rel
Hum
%
Delta-T
°C
Wind Press
QNH
hPa
Press
MSL
hPa
Rain since
9am
mm
Dir  Spd
km/h
Gust
km/h
Spd
kts
Gust
kts
26/11:30pm 2.8 -1.5 1.2 89 0.6 W 13 15 7 8 1021.6 1021.6 0.0
26/11:00pm 3.2 -1.0 1.4 88 0.7 WSW 13 13 7 7 1021.5 1021.5 0.0
26/10:30pm 4.0 0.3 2.5 90 0.6 W 11 15 6 8 1021.2 1021.2 0.0
26/10:00pm 3.1 -0.8 1.2 87 0.7 WSW 11 13 6 7 1020.9 1020.9 0.0
26/09:30pm 2.9 -1.1 0.8 86 0.8 WSW 11 13 6 7 1020.8 1020.8 0.0
26/09:00pm 4.2 -0.3 1.9 85 0.9 W 15 17 8 9 1020.6 1020.6 0.0
26/08:30pm 5.1 -0.3 2.5 83 1.1 W 20 24 11 13 1020.2 1020.2 0.0
26/08:00pm 4.4 0.6 1.8 83 1.0 WSW 11 13 6 7 1019.8 1019.8 0.0
26/07:30pm 3.8 -1.2 1.5 85 0.9 WSW 17 19 9 10 1019.2 1019.2 0.0
26/07:00pm 4.5 -0.2 1.2 79 1.3 WSW 15 17 8 9 1018.9 1018.9 0.0
26/06:30pm 6.0 0.8 2.3 77 1.5 WSW 19 20 10 11 1018.5 1018.5 0.0
26/06:00pm 6.3 1.0 1.8 73 1.8 WSW 19 20 10 11 1018.1 1018.1 0.0
26/05:30pm 7.4 1.9 1.9 68 2.2 W 20 24 11 13 1017.6 1017.7 0.0
26/05:00pm 8.9 2.9 1.1 58 3.2 WSW 22 30 12 16 1016.9 1017.0 0.0
26/04:30pm 10.1 4.6 2.0 57 3.4 SW 20 28 11 15 1016.5 1016.6 0.0
26/04:00pm 10.6 4.0 2.2 56 3.6 WSW 26 33 14 18 1016.0 1016.1 0.0
26/03:30pm 11.7 6.2 1.9 51 4.2 WSW 20 28 11 15 1015.1 1015.2 0.0
26/03:00pm 11.6 4.1 1.5 50 4.3 WSW 30 37 16 20 1014.5 1014.6 0.0
26/02:30pm 12.0 6.4 1.3 48 4.5 SW 20 33 11 18 1014.3 1014.4 0.0
26/02:00pm 12.0 6.5 0.8 46 4.7 SW 19 28 10 15 1014.1 1014.2 0.0
26/01:30pm 11.2 5.5 0.6 48 4.4 SW 20 28 11 15 1013.5 1013.6 0.0
26/01:00pm 12.0 4.6 1.6 49 4.4 SW 30 39 16 21 1012.9 1013.0 0.0
26/12:30pm 12.0 5.1 2.5 52 4.1 SW 28 41 15 22 1012.4 1012.5 0.0
26/12:00pm 12.0 5.6 3.0 54 4.0 SW 26 39 14 21 1012.0 1012.1 0.0
26/11:30am 12.1 5.1 4.1 58 3.6 SW 30 41 16 22 1011.7 1011.8 0.0
26/11:00am 13.0 8.1 6.8 66 3.0 SW 22 32 12 17 1011.3 1011.4 0.0
26/10:30am 11.9 6.7 5.5 65 3.0 WSW 22 28 12 15 1011.0 1011.1 0.0
26/10:00am 11.8 7.5 5.4 65 3.0 SW 17 22 9 12 1010.3 1010.4 0.0
26/09:30am 10.8 7.8 6.0 72 2.2 SW 11 17 6 9 1009.6 1009.7 0.0
26/09:00am 10.2 8.2 6.4 77 1.8 NE 6 9 3 5 1008.7 1008.8 6.4
26/08:30am 8.5 6.3 6.1 85 1.1 SSE 7 11 4 6 1007.7 1007.8 6.4
26/08:00am 7.2 4.5 5.5 89 0.8 SE 9 11 5 6 1007.0 1007.1 6.4
26/07:30am 7.5 5.2 5.6 88 0.8 WSW 7 11 4 6 1006.2 1006.3 6.4
26/07:00am 8.2 3.6 6.3 88 0.9 W 20 24 11 13 1005.3 1005.4 6.4
26/06:30am 9.2 3.9 6.8 85 1.1 W 24 30 13 16 1004.6 1004.7 6.4
26/06:00am 9.8 3.8 6.9 82 1.4 WNW 28 33 15 18 1004.0 1004.1 6.4
26/05:30am 9.8 3.8 7.1 83 1.3 WNW 28 35 15 19 1003.7 1003.8 6.4
26/05:00am 9.7 4.5 7.1 84 1.2 WNW 24 32 13 17 1003.3 1003.3 6.4
26/04:30am 9.5 4.3 7.1 85 1.1 W 24 32 13 17 1002.9 1002.9 6.4
26/04:00am 10.0 3.4 7.6 85 1.2 W 32 41 17 22 1002.8 1002.8 6.4
26/03:30am 10.3 3.8 8.2 87 1.0 WNW 32 39 17 21 1002.8 1002.8 6.4
26/03:00am 10.3 3.9 8.4 88 0.9 WNW 32 39 17 21 1002.7 1002.7 6.4
26/02:30am 10.5 5.2 8.6 88 0.9 WNW 26 35 14 19 1002.7 1002.7 6.4
26/02:16am 10.3 5.5 8.7 90 0.8 WNW 24 37 13 20 1002.7 1002.7 6.4
26/02:00am 9.0 6.0 7.8 92 0.6 WSW 13 17 7 9 1003.0 1003.0 6.4
26/01:30am 9.0 6.0 7.8 92 0.6 WSW 13 15 7 8 1003.0 1003.0 6.4
26/01:00am 8.8 5.3 7.4 91 0.7 W 15 20 8 11 1003.1 1003.1 6.4
26/12:43am 9.3 5.3 8.2 93 0.5 WSW 19 26 10 14 1003.2 1003.2 6.4
26/12:30am 9.5 3.8 8.4 93 0.5 WSW 28 37 15 20 1003.8 1003.9 6.2
26/12:12am 10.5 5.0 9.1 91 0.7 W 28 41 15 22 1003.7 1003.8 3.4
26/12:01am 10.8 6.1 9.2 90 0.8 W 24 30 13 16 1003.9 1004.0 3.0
26/12:00am 10.8 6.1 9.2 90 0.8 W 24 30 13 16 1004.0 1004.1 3.0
 
Date/Time
EST
Temp
°C
App
Temp
°C
Dew
Point
°C
Rel
Hum
%
Delta-T
°C
Wind Press
QNH
hPa
Press
MSL
hPa
Rain since
9am
mm
Dir  Spd
km/h
Gust
km/h
Spd
kts
Gust
kts
25/11:55pm 10.9 5.8 9.2 89 0.8 W 26 32 14 17 1004.1 1004.2 2.2
25/11:30pm 11.2 6.5 9.3 88 1.0 WNW 24 37 13 20 1004.1 1004.2 2.2
25/11:00pm 10.3 6.4 8.6 89 0.8 WNW 19 22 10 12 1004.6 1004.7 2.0
25/10:30pm 10.3 5.4 8.4 88 0.9 W 24 30 13 16 1005.0 1005.1 2.0
25/10:00pm 10.2 6.7 8.6 90 0.8 W 17 24 9 13 1005.4 1005.5 2.0
25/09:30pm 10.5 6.4 8.6 88 0.9 WNW 20 26 11 14 1005.7 1005.8 2.0
25/09:00pm 10.0 6.3 8.1 88 0.9 WNW 17 20 9 11 1005.7 1005.8 2.0
25/08:30pm 10.2 5.6 8.1 87 1.0 W 22 28 12 15 1005.9 1006.0 2.0
25/08:17pm 10.3 4.5 8.1 86 1.1 W 28 39 15 21 1006.0 1006.1 2.0
25/08:00pm 10.8 6.0 8.7 87 1.0 W 24 35 13 19 1006.2 1006.3 1.8
25/07:58pm 11.3 6.1 9.0 86 1.1 W 26 32 14 17 1006.4 1006.5 1.4
25/07:30pm 11.9 6.3 8.7 81 1.6 WNW 28 35 15 19 1006.0 1006.1 0.0
25/07:00pm 12.0 6.1 9.2 83 1.4 WNW 30 39 16 21 1006.1 1006.2 0.0
25/06:30pm 12.0 7.6 10.4 90 0.8 NW 24 30 13 16 1006.4 1006.5 0.0
25/06:00pm 12.2 7.5 10.8 91 0.7 NW 26 32 14 17 1006.4 1006.5 0.0
25/05:30pm 12.1 7.3 10.2 88 1.0 WNW 26 32 14 17 1006.2 1006.3 0.0
25/05:00pm 12.2 6.3 10.3 88 1.0 NW 32 39 17 21 1006.2 1006.3 0.0
25/04:30pm 12.4 7.0 11.0 91 0.7 NW 30 37 16 20 1006.2 1006.3 0.0
25/04:00pm 12.5 6.6 11.1 91 0.7 NW 33 41 18 22 1006.4 1006.5 0.0
25/03:30pm 12.8 6.6 11.4 91 0.7 NW 35 44 19 24 1006.4 1006.5 0.0
25/03:00pm 13.0 7.2 11.4 90 0.8 NW 33 43 18 23 1006.5 1006.6 0.0

Other Formats:

Comma delimited format used in spreadsheet applications
http://www.bom.gov.au/fwo/IDT60801/IDT60801.95960.axf

JavaScript Object Notation format (JSON) in row-major order
http://www.bom.gov.au/fwo/IDT60801/IDT60801.95960.json